createdAt,value
2023-03-11T00:04:37.750Z,1.68
2023-03-11T00:12:13.144Z,1.49
2023-03-11T00:19:47.217Z,1.41
2023-03-11T00:27:22.565Z,1.26
2023-03-11T00:34:56.420Z,1.19
2023-03-11T00:42:31.781Z,1.11
2023-03-11T00:50:07.638Z,1.03
2023-03-11T00:57:43.289Z,1.01
2023-03-11T01:05:17.166Z,0.97
2023-03-11T01:12:52.702Z,0.94
2023-03-11T01:20:26.774Z,0.94
2023-03-11T01:28:02.115Z,0.89
2023-03-11T01:35:36.963Z,0.88
2023-03-11T01:43:41.555Z,0.88
2023-03-11T01:51:16.953Z,0.85
2023-03-11T01:58:55.108Z,0.87
2023-03-11T02:06:29.726Z,0.86
2023-03-11T02:14:08.224Z,0.83
2023-03-11T02:21:42.508Z,0.82
2023-03-11T02:29:18.369Z,0.82
2023-03-11T02:36:52.739Z,0.80
2023-03-11T02:44:28.268Z,0.81
2023-03-11T02:52:02.252Z,0.82
2023-03-11T02:59:37.560Z,0.82
2023-03-11T03:07:11.721Z,0.83
2023-03-11T03:14:47.185Z,0.84
2023-03-11T03:22:21.190Z,0.82
2023-03-11T03:29:56.547Z,0.80
2023-03-11T03:37:33.594Z,0.79
2023-03-11T03:45:10.612Z,0.78
2023-03-11T03:52:44.723Z,0.79
2023-03-11T04:00:21.081Z,0.79
2023-03-11T04:07:55.270Z,0.80
2023-03-11T04:15:30.553Z,0.81
2023-03-11T04:23:04.516Z,0.82
2023-03-11T04:30:42.608Z,0.81
2023-03-11T04:46:09.417Z,0.80
2023-03-11T04:53:43.424Z,0.81
2023-03-11T05:01:19.033Z,0.81
2023-03-11T05:08:53.338Z,0.81
2023-03-11T05:16:28.966Z,0.82
2023-03-11T05:24:02.751Z,0.80
2023-03-11T05:31:38.705Z,0.82
2023-03-11T05:39:13.116Z,0.80
2023-03-11T05:46:48.541Z,0.79
2023-03-11T05:54:22.672Z,0.74
2023-03-11T06:01:58.155Z,0.74
2023-03-11T06:09:31.951Z,0.74
2023-03-11T06:17:07.134Z,0.72
2023-03-11T06:24:41.146Z,0.83
2023-03-11T06:32:16.251Z,0.76
2023-03-11T06:39:53.432Z,0.75
2023-03-11T06:47:28.824Z,0.76
2023-03-11T06:55:03.796Z,0.78
2023-03-11T07:02:39.182Z,0.71
2023-03-11T07:10:14.029Z,0.77
2023-03-11T07:17:50.039Z,0.77
2023-03-11T07:25:24.507Z,0.75
2023-03-11T07:33:00.024Z,0.78
2023-03-11T07:40:34.047Z,0.83
2023-03-11T07:48:09.518Z,0.88
2023-03-11T07:55:43.682Z,0.88
2023-03-11T08:03:19.053Z,0.87
2023-03-11T08:18:47.428Z,0.95
2023-03-11T08:26:22.987Z,1.00
2023-03-11T08:34:02.032Z,1.00
2023-03-11T08:41:38.795Z,1.00
2023-03-11T08:49:14.006Z,0.95
2023-03-11T08:56:48.953Z,0.99
2023-03-11T09:04:24.332Z,1.24
2023-03-11T09:11:58.124Z,1.27
2023-03-11T09:19:33.625Z,1.28
2023-03-11T09:27:07.588Z,1.32
2023-03-11T09:34:43.196Z,1.22
2023-03-11T09:42:23.421Z,1.28
2023-03-11T09:50:15.293Z,1.25
2023-03-11T09:57:50.082Z,1.27
2023-03-11T10:05:28.540Z,1.27
2023-03-11T10:13:13.255Z,1.22
2023-03-11T10:20:54.428Z,1.16
2023-03-11T10:28:34.562Z,1.08
2023-03-11T10:44:12.121Z,1.25
2023-03-11T10:51:49.497Z,1.29
2023-03-11T10:59:26.585Z,1.42
2023-03-11T11:07:22.456Z,1.57
2023-03-11T11:22:56.391Z,1.56
2023-03-11T11:30:31.092Z,1.56
2023-03-11T11:38:10.742Z,1.66
2023-03-11T11:45:48.012Z,1.71
2023-03-11T11:53:29.433Z,1.91
2023-03-11T12:09:24.250Z,1.85
2023-03-11T12:25:06.546Z,1.78
2023-03-11T12:32:44.942Z,1.99
2023-03-11T12:41:07.931Z,2.18
2023-03-11T12:48:46.686Z,2.41
2023-03-11T12:56:32.308Z,2.39
2023-03-11T13:04:31.415Z,2.47
2023-03-11T13:20:51.705Z,2.64
2023-03-11T13:29:01.973Z,2.77
2023-03-11T13:44:46.965Z,2.46
2023-03-11T13:52:27.942Z,2.30
2023-03-11T14:08:22.517Z,1.98
2023-03-11T14:16:03.390Z,1.98
2023-03-11T14:23:44.015Z,2.05
2023-03-11T14:31:31.376Z,2.04
2023-03-11T14:47:07.240Z,2.30
2023-03-11T14:54:43.000Z,2.34
2023-03-11T15:02:34.712Z,2.20
2023-03-11T15:10:12.357Z,2.25
2023-03-11T15:17:53.793Z,2.39
2023-03-11T15:25:30.611Z,2.51
2023-03-11T15:41:16.911Z,2.88
2023-03-11T15:48:50.745Z,2.96
2023-03-11T15:56:26.484Z,2.94
2023-03-11T16:04:00.557Z,2.93
2023-03-11T16:19:28.441Z,2.58
2023-03-11T16:27:03.849Z,2.48
2023-03-11T16:34:38.218Z,2.38
2023-03-11T16:42:13.183Z,2.33
2023-03-11T16:49:50.735Z,2.27
2023-03-11T16:57:26.285Z,2.17
2023-03-11T17:05:00.322Z,2.08
2023-03-11T17:12:36.120Z,1.99
2023-03-11T17:20:11.821Z,1.88
2023-03-11T17:27:47.366Z,1.83
2023-03-11T17:35:21.315Z,1.76
2023-03-11T17:42:57.069Z,1.73
2023-03-11T17:50:31.069Z,1.64
2023-03-11T18:05:59.816Z,1.51
2023-03-11T18:13:36.280Z,1.50
2023-03-11T18:21:13.275Z,1.45
2023-03-11T18:44:35.889Z,1.24
2023-03-11T18:52:11.340Z,1.18
2023-03-11T18:59:49.881Z,1.12
2023-03-11T19:07:24.581Z,1.08
2023-03-11T19:14:59.880Z,1.02
2023-03-11T19:22:33.876Z,0.99
2023-03-11T19:30:10.941Z,0.95
2023-03-11T19:37:45.217Z,0.89
2023-03-11T19:45:20.973Z,0.84
2023-03-11T19:52:55.254Z,0.82
2023-03-11T20:00:30.797Z,0.81
2023-03-11T20:08:06.421Z,0.79
2023-03-11T20:15:41.917Z,0.79
2023-03-11T20:31:16.356Z,0.78
2023-03-11T20:38:51.073Z,0.77
2023-03-11T20:46:26.549Z,0.76
2023-03-11T20:54:00.680Z,0.74
2023-03-11T21:01:36.394Z,0.73
2023-03-11T21:09:13.670Z,0.72
2023-03-11T21:16:49.258Z,0.66
2023-03-11T21:24:23.481Z,0.60
2023-03-11T21:31:58.816Z,0.58
2023-03-11T21:39:32.967Z,0.58
2023-03-11T21:47:08.198Z,0.62
2023-03-11T22:02:35.141Z,0.71
2023-03-11T22:10:09.605Z,0.77
2023-03-11T22:17:45.236Z,0.83
2023-03-11T22:25:19.260Z,0.85
2023-03-11T22:32:54.805Z,0.89
2023-03-11T22:40:28.995Z,0.92
2023-03-11T22:48:04.135Z,0.91
2023-03-11T22:55:40.096Z,0.89
2023-03-11T23:03:15.981Z,0.86
2023-03-11T23:10:49.980Z,0.84
2023-03-11T23:18:25.232Z,0.83
2023-03-11T23:25:59.314Z,0.83
2023-03-11T23:33:35.011Z,0.81
2023-03-11T23:41:12.109Z,0.83
2023-03-11T23:48:47.443Z,0.81
2023-03-11T23:56:21.488Z,0.79
